Time;durP1;ratioP1;P1;durP2;ratioP2;P2;SDS_P1;SDS_P2;PMS_P1;PMS_P2;Temp;Humidity;BMP_temperature;BMP_pressure;BME280_temperature;BME280_humidity;BME280_pressure;Samples;Min_cycle;Max_cycle;Signal;HPM_P1;HPM_P2
2022/11/06 00:00:16;;;;;;;17.27;9.33;;;;;;;;;;5051578;28;20232;-80
2022/11/06 00:02:45;;;;;;;13.87;7.80;;;;;;;;;;5050947;28;20237;-80
2022/11/06 00:07:57;;;;;;;11.63;7.73;;;;;;;;;;5050711;28;20240;-80
2022/11/06 00:10:24;;;;;;;13.97;7.67;;;;;;;;;;5051519;28;20701;-81
2022/11/06 00:12:52;;;;;;;14.03;7.90;;;;;;;;;;5051018;28;20237;-81
2022/11/06 00:15:19;;;;;;;11.23;6.73;;;;;;;;;;5050419;28;20206;-81
2022/11/06 00:17:50;;;;;;;10.37;6.70;;;;;;;;;;5050242;28;20724;-80
2022/11/06 00:20:17;;;;;;;8.20;6.53;;;;;;;;;;5051479;28;20205;-80
2022/11/06 00:22:44;;;;;;;9.13;6.83;;;;;;;;;;5050916;28;20272;-81
2022/11/06 00:25:11;;;;;;;9.47;6.87;;;;;;;;;;5044191;28;20210;-81
2022/11/06 00:27:40;;;;;;;10.53;6.23;;;;;;;;;;5050311;28;20237;-81
2022/11/06 00:30:08;;;;;;;7.20;5.93;;;;;;;;;;5051410;28;20209;-81
2022/11/06 00:32:35;;;;;;;7.90;6.13;;;;;;;;;;5050449;28;20229;-81
2022/11/06 00:35:04;;;;;;;9.53;6.27;;;;;;;;;;5044736;28;20206;-81
2022/11/06 00:37:31;;;;;;;7.73;5.93;;;;;;;;;;5050439;28;20732;-81
2022/11/06 00:39:58;;;;;;;8.73;5.97;;;;;;;;;;5051064;28;20202;-81
2022/11/06 00:42:25;;;;;;;9.30;6.23;;;;;;;;;;5050973;28;20265;-81
2022/11/06 00:44:52;;;;;;;9.77;7.07;;;;;;;;;;5046333;28;20218;-81
2022/11/06 00:47:20;;;;;;;9.03;6.17;;;;;;;;;;5050462;28;20233;-80
2022/11/06 00:49:47;;;;;;;11.93;6.50;;;;;;;;;;5050557;28;20721;-81
2022/11/06 00:52:15;;;;;;;9.37;6.70;;;;;;;;;;5049228;28;20241;-81
2022/11/06 00:54:42;;;;;;;9.73;6.90;;;;;;;;;;5036105;28;20210;-81
2022/11/06 00:57:10;;;;;;;8.87;6.60;;;;;;;;;;5050777;28;20241;-80
2022/11/06 00:59:37;;;;;;;10.20;6.40;;;;;;;;;;5050738;28;20206;-81
2022/11/06 01:02:04;;;;;;;9.73;5.97;;;;;;;;;;5050763;28;20230;-80
2022/11/06 01:04:31;;;;;;;9.87;5.47;;;;;;;;;;5050294;28;20217;-81
2022/11/06 01:06:58;;;;;;;9.27;5.87;;;;;;;;;;5050301;28;20238;-80
2022/11/06 01:09:27;;;;;;;9.37;5.77;;;;;;;;;;5051017;28;20578;-81
2022/11/06 01:11:55;;;;;;;11.87;6.37;;;;;;;;;;5050380;28;20245;-81
2022/11/06 01:14:23;;;;;;;8.20;5.63;;;;;;;;;;5051547;28;20712;-81
2022/11/06 01:16:50;;;;;;;9.00;5.60;;;;;;;;;;5053858;28;20234;-80
2022/11/06 01:19:18;;;;;;;8.33;6.00;;;;;;;;;;5054410;28;20217;-80
2022/11/06 01:21:46;;;;;;;9.37;7.87;;;;;;;;;;5053090;28;20230;-81
2022/11/06 01:24:16;;;;;;;11.57;8.00;;;;;;;;;;5053973;28;20210;-80
2022/11/06 01:26:44;;;;;;;15.03;8.33;;;;;;;;;;5053809;28;20268;-80
2022/11/06 01:29:12;;;;;;;9.90;7.80;;;;;;;;;;5054212;28;20236;-81
2022/11/06 01:31:39;;;;;;;10.83;7.53;;;;;;;;;;5053816;28;20697;-81
2022/11/06 01:34:06;;;;;;;9.33;7.57;;;;;;;;;;5049685;28;20689;-80
2022/11/06 01:36:34;;;;;;;9.40;6.30;;;;;;;;;;5053485;28;20222;-80
2022/11/06 01:39:02;;;;;;;9.67;7.33;;;;;;;;;;5054160;28;20216;-80
2022/11/06 01:41:30;;;;;;;12.40;6.90;;;;;;;;;;5053089;28;20240;-80
2022/11/06 01:44:00;;;;;;;7.73;6.50;;;;;;;;;;5053994;28;20209;-80
2022/11/06 01:46:28;;;;;;;11.43;6.50;;;;;;;;;;5053594;28;20241;-80
2022/11/06 01:48:56;;;;;;;10.57;6.00;;;;;;;;;;5053799;28;20229;-80
2022/11/06 01:51:25;;;;;;;9.50;6.10;;;;;;;;;;5052159;28;20590;-80
2022/11/06 01:53:52;;;;;;;6.93;6.07;;;;;;;;;;5052161;28;20556;-80
2022/11/06 01:56:20;;;;;;;7.33;6.53;;;;;;;;;;5051879;28;20697;-80
2022/11/06 01:58:48;;;;;;;8.57;6.83;;;;;;;;;;5053148;28;20226;-81
2022/11/06 02:01:16;;;;;;;8.20;6.03;;;;;;;;;;5053648;28;20209;-80
2022/11/06 02:03:46;;;;;;;8.07;6.37;;;;;;;;;;5050329;28;20206;-80
2022/11/06 02:06:13;;;;;;;7.90;6.10;;;;;;;;;;5053040;28;20213;-80
2022/11/06 02:08:40;;;;;;;8.07;6.00;;;;;;;;;;5045640;28;20222;-80
2022/11/06 02:11:07;;;;;;;13.07;6.47;;;;;;;;;;5053231;28;20666;-80
2022/11/06 02:13:38;;;;;;;8.20;6.10;;;;;;;;;;5053801;28;20214;-80
2022/11/06 02:16:10;;;;;;;12.47;6.63;;;;;;;;;;5053350;28;20216;-80
2022/11/06 02:18:48;;;;;;;8.87;6.20;;;;;;;;;;5052470;28;20233;-80
2022/11/06 02:21:25;;;;;;;10.63;6.57;;;;;;;;;;5053063;28;20247;-80
2022/11/06 02:24:02;;;;;;;10.30;6.00;;;;;;;;;;5052828;28;20305;-80
2022/11/06 02:26:37;;;;;;;10.30;6.37;;;;;;;;;;5051810;28;20312;-80
2022/11/06 02:29:08;;;;;;;7.87;5.63;;;;;;;;;;5046067;28;20345;-81
2022/11/06 02:31:36;;;;;;;9.33;5.93;;;;;;;;;;5052150;28;20313;-80
2022/11/06 02:34:06;;;;;;;7.90;5.77;;;;;;;;;;5053280;28;20400;-80
2022/11/06 02:36:34;;;;;;;7.00;5.67;;;;;;;;;;5052165;28;20317;-80
2022/11/06 02:39:03;;;;;;;7.37;5.90;;;;;;;;;;5052903;28;20297;-80
2022/11/06 02:41:32;;;;;;;7.50;5.87;;;;;;;;;;5052609;28;20705;-80
2022/11/06 02:44:00;;;;;;;9.53;5.47;;;;;;;;;;5052823;28;20296;-80
2022/11/06 02:46:31;;;;;;;7.80;5.90;;;;;;;;;;5051954;28;20317;-80
2022/11/06 02:49:02;;;;;;;11.17;5.60;;;;;;;;;;5052872;28;20262;-80
2022/11/06 02:51:30;;;;;;;8.20;6.60;;;;;;;;;;5052322;28;20243;-80
2022/11/06 02:54:00;;;;;;;8.20;5.90;;;;;;;;;;5052985;28;20240;-80
2022/11/06 02:56:28;;;;;;;10.33;6.93;;;;;;;;;;5051669;28;20247;-80
2022/11/06 02:58:56;;;;;;;8.87;6.10;;;;;;;;;;5049131;28;20573;-80
2022/11/06 03:01:26;;;;;;;9.97;5.87;;;;;;;;;;5051341;28;20237;-80
2022/11/06 03:03:56;;;;;;;11.13;7.40;;;;;;;;;;5052163;28;20210;-80
2022/11/06 03:06:28;;;;;;;11.40;6.27;;;;;;;;;;5052449;28;20229;-80
2022/11/06 03:08:56;;;;;;;11.57;7.03;;;;;;;;;;5052018;28;20248;-81
2022/11/06 03:11:24;;;;;;;13.40;6.50;;;;;;;;;;5051639;28;20226;-80
2022/11/06 03:13:53;;;;;;;10.50;6.23;;;;;;;;;;5052306;28;20606;-80
2022/11/06 03:16:26;;;;;;;9.53;6.20;;;;;;;;;;5052010;28;20256;-80
2022/11/06 03:18:58;;;;;;;10.33;6.17;;;;;;;;;;5052129;28;20209;-80
2022/11/06 03:21:26;;;;;;;10.13;6.67;;;;;;;;;;5051208;28;20246;-80
2022/11/06 03:23:55;;;;;;;9.73;6.53;;;;;;;;;;5052147;28;20219;-80
2022/11/06 03:26:25;;;;;;;9.80;6.57;;;;;;;;;;5052173;28;20686;-80
2022/11/06 03:28:53;;;;;;;14.73;6.43;;;;;;;;;;5051975;28;20237;-81
2022/11/06 03:31:28;;;;;;;12.30;6.27;;;;;;;;;;5051252;28;20237;-80
2022/11/06 03:33:59;;;;;;;8.43;6.17;;;;;;;;;;5052354;28;20684;-80
2022/11/06 03:36:27;;;;;;;10.63;6.83;;;;;;;;;;5051414;28;20720;-80
2022/11/06 03:38:56;;;;;;;9.63;6.10;;;;;;;;;;5051280;28;20209;-80
2022/11/06 03:41:26;;;;;;;7.50;5.77;;;;;;;;;;5052154;28;20234;-80
2022/11/06 03:43:55;;;;;;;8.17;6.17;;;;;;;;;;5052228;28;20583;-80
2022/11/06 03:46:24;;;;;;;8.33;6.00;;;;;;;;;;5051791;28;20239;-80
2022/11/06 03:48:54;;;;;;;10.77;5.70;;;;;;;;;;5050687;28;20647;-80
2022/11/06 03:51:23;;;;;;;9.33;6.57;;;;;;;;;;5051713;28;20225;-80
2022/11/06 03:53:52;;;;;;;9.60;6.10;;;;;;;;;;5052050;28;20221;-80
2022/11/06 03:56:22;;;;;;;11.87;6.10;;;;;;;;;;5051402;28;20614;-80
2022/11/06 03:58:50;;;;;;;11.77;6.60;;;;;;;;;;5050418;28;20223;-82
2022/11/06 04:01:21;;;;;;;11.63;6.40;;;;;;;;;;5051673;28;20226;-80
2022/11/06 04:03:50;;;;;;;6.10;5.37;;;;;;;;;;5051955;28;20551;-80
2022/11/06 04:06:20;;;;;;;8.10;5.87;;;;;;;;;;5051358;28;20233;-80
2022/11/06 04:14:22;;;;;;;10.67;7.03;;;;;;;;;;5052291;28;20224;-80
2022/11/06 04:16:51;;;;;;;8.17;5.60;;;;;;;;;;5051257;28;20238;-80
2022/11/06 04:19:19;;;;;;;9.23;6.10;;;;;;;;;;5051388;28;20277;-80
2022/11/06 04:21:54;;;;;;;11.57;6.00;;;;;;;;;;5051318;28;20235;-80
2022/11/06 04:27:23;;;;;;;7.10;5.80;;;;;;;;;;5050218;28;20714;-80
2022/11/06 04:30:01;;;;;;;8.30;5.13;;;;;;;;;;5045101;28;20228;-80
2022/11/06 04:32:30;;;;;;;11.70;5.77;;;;;;;;;;5051510;28;20244;-79
2022/11/06 04:35:02;;;;;;;7.80;5.70;;;;;;;;;;5051424;28;20208;-80
2022/11/06 04:37:32;;;;;;;6.73;5.23;;;;;;;;;;5050232;28;20257;-80
2022/11/06 04:40:04;;;;;;;8.70;5.33;;;;;;;;;;5051665;28;20201;-80
2022/11/06 04:42:36;;;;;;;8.53;5.90;;;;;;;;;;5051421;28;20315;-80
2022/11/06 04:45:05;;;;;;;7.53;5.20;;;;;;;;;;5051348;28;20227;-80
2022/11/06 04:47:32;;;;;;;7.40;4.97;;;;;;;;;;5049981;28;20573;-80
2022/11/06 04:50:01;;;;;;;6.67;5.27;;;;;;;;;;5053778;28;20235;-80
2022/11/06 04:52:28;;;;;;;7.90;4.93;;;;;;;;;;5055221;28;20260;-80
2022/11/06 04:54:57;;;;;;;9.93;6.10;;;;;;;;;;5055571;28;20220;-80
2022/11/06 04:57:26;;;;;;;10.23;5.67;;;;;;;;;;5054243;28;20260;-80
2022/11/06 04:59:55;;;;;;;8.20;5.53;;;;;;;;;;5054958;28;20204;-80
2022/11/06 05:02:22;;;;;;;7.73;5.60;;;;;;;;;;5061714;28;20232;-80
2022/11/06 05:04:50;;;;;;;7.27;5.70;;;;;;;;;;5075245;28;20297;-80
2022/11/06 05:07:17;;;;;;;6.23;5.37;;;;;;;;;;5064458;28;20235;-80
2022/11/06 05:09:45;;;;;;;6.13;5.33;;;;;;;;;;5055220;28;20298;-80
2022/11/06 05:12:12;;;;;;;6.73;5.00;;;;;;;;;;5055031;28;20235;-80
2022/11/06 05:14:40;;;;;;;6.10;5.13;;;;;;;;;;5055395;28;20289;-80
2022/11/06 05:17:08;;;;;;;11.70;5.50;;;;;;;;;;5046849;28;20238;-80
2022/11/06 05:19:35;;;;;;;6.83;5.60;;;;;;;;;;5053468;28;20196;-80
2022/11/06 05:24:47;;;;;;;5.43;4.93;;;;;;;;;;5052632;28;20218;-80
2022/11/06 05:27:14;;;;;;;9.50;5.67;;;;;;;;;;5057598;28;20232;-80
2022/11/06 05:29:42;;;;;;;8.50;4.63;;;;;;;;;;5054476;28;20224;-80
2022/11/06 05:32:09;;;;;;;12.00;6.00;;;;;;;;;;5056428;22;20239;-78
2022/11/06 05:34:36;;;;;;;6.23;5.47;;;;;;;;;;5027403;28;20229;-77
2022/11/06 05:37:03;;;;;;;6.10;5.50;;;;;;;;;;5033767;28;20243;-77
2022/11/06 05:39:30;;;;;;;7.17;5.27;;;;;;;;;;5034148;28;20657;-78
2022/11/06 05:41:57;;;;;;;7.67;4.97;;;;;;;;;;5018156;28;20328;-77
2022/11/06 05:44:24;;;;;;;6.83;5.43;;;;;;;;;;5013591;28;20218;-77
2022/11/06 05:46:53;;;;;;;8.00;5.63;;;;;;;;;;5012258;28;20235;-80
2022/11/06 05:49:20;;;;;;;14.43;5.53;;;;;;;;;;5013788;28;20293;-80
2022/11/06 05:51:48;;;;;;;5.47;4.70;;;;;;;;;;5014413;28;20449;-80
2022/11/06 05:54:15;;;;;;;5.50;5.00;;;;;;;;;;5014535;28;20217;-80
2022/11/06 05:56:42;;;;;;;6.50;5.80;;;;;;;;;;5009119;28;20592;-80
2022/11/06 05:59:09;;;;;;;6.87;5.37;;;;;;;;;;5014641;28;20213;-79
2022/11/06 06:01:36;;;;;;;6.67;5.90;;;;;;;;;;5005676;28;20243;-80
2022/11/06 06:04:05;;;;;;;9.57;5.37;;;;;;;;;;5014671;28;20216;-80
2022/11/06 06:06:33;;;;;;;7.33;5.87;;;;;;;;;;4996012;28;20232;-79
2022/11/06 06:09:00;;;;;;;6.27;5.20;;;;;;;;;;5014144;28;20209;-79
2022/11/06 06:11:27;;;;;;;7.53;6.13;;;;;;;;;;5014064;28;20699;-80
2022/11/06 06:13:54;;;;;;;6.80;5.13;;;;;;;;;;5014330;28;20606;-80
2022/11/06 06:16:21;;;;;;;7.43;5.30;;;;;;;;;;5013599;28;20238;-80
2022/11/06 06:18:50;;;;;;;6.70;5.27;;;;;;;;;;5013602;28;20208;-80
2022/11/06 06:21:18;;;;;;;5.13;4.47;;;;;;;;;;5013130;28;20595;-78
2022/11/06 06:23:45;;;;;;;6.83;5.07;;;;;;;;;;5013738;28;20213;-78
2022/11/06 06:26:12;;;;;;;6.53;5.37;;;;;;;;;;5013434;28;20263;-89
2022/11/06 06:28:39;;;;;;;5.23;4.73;;;;;;;;;;5013680;28;20213;-78
2022/11/06 06:31:08;;;;;;;6.03;4.73;;;;;;;;;;5011515;28;20257;-78
2022/11/06 06:33:35;;;;;;;5.97;5.20;;;;;;;;;;5013269;28;20214;-78
2022/11/06 06:36:03;;;;;;;5.83;5.17;;;;;;;;;;5012800;28;20209;-78
2022/11/06 06:38:32;;;;;;;8.10;5.47;;;;;;;;;;5006518;28;20211;-78
2022/11/06 06:41:03;;;;;;;8.07;5.47;;;;;;;;;;5013141;28;20232;-79
2022/11/06 06:43:30;;;;;;;7.97;5.60;;;;;;;;;;5013299;28;20200;-78
2022/11/06 06:45:58;;;;;;;9.43;5.60;;;;;;;;;;5012974;28;20218;-79
2022/11/06 06:48:25;;;;;;;8.27;5.53;;;;;;;;;;5022070;28;20195;-78
2022/11/06 06:50:53;;;;;;;6.40;5.73;;;;;;;;;;5012538;28;20232;-79
2022/11/06 06:53:20;;;;;;;8.07;6.33;;;;;;;;;;5013492;28;20291;-78
2022/11/06 06:55:48;;;;;;;9.83;6.37;;;;;;;;;;5021794;28;20207;-78
2022/11/06 06:58:15;;;;;;;8.90;6.33;;;;;;;;;;5032429;28;20254;-78
2022/11/06 07:00:42;;;;;;;7.20;5.90;;;;;;;;;;5033103;28;20225;-78
2022/11/06 07:03:10;;;;;;;10.57;5.67;;;;;;;;;;5025406;28;20227;-78
2022/11/06 07:05:37;;;;;;;10.50;6.13;;;;;;;;;;5013068;28;20208;-79
2022/11/06 07:08:04;;;;;;;13.23;6.70;;;;;;;;;;5012509;28;20241;-79
2022/11/06 07:10:32;;;;;;;9.43;6.47;;;;;;;;;;5012521;28;20700;-79
2022/11/06 07:13:02;;;;;;;12.83;6.53;;;;;;;;;;5011440;28;20596;-79
2022/11/06 07:15:29;;;;;;;9.33;6.27;;;;;;;;;;5013263;28;20552;-78
2022/11/06 07:17:56;;;;;;;10.63;6.97;;;;;;;;;;5012305;28;20232;-79
2022/11/06 07:20:23;;;;;;;10.80;6.90;;;;;;;;;;5011750;28;20239;-80
2022/11/06 07:22:50;;;;;;;14.53;7.03;;;;;;;;;;5011995;28;20242;-79
2022/11/06 07:25:18;;;;;;;10.47;7.23;;;;;;;;;;5008654;28;20683;-78
2022/11/06 07:27:45;;;;;;;12.80;7.20;;;;;;;;;;5004200;28;20232;-78
2022/11/06 07:30:14;;;;;;;12.00;7.23;;;;;;;;;;5012422;28;20239;-78
2022/11/06 07:32:41;;;;;;;14.20;8.30;;;;;;;;;;5030898;28;20241;-79
2022/11/06 07:35:08;;;;;;;13.83;7.23;;;;;;;;;;5032544;28;20218;-78
2022/11/06 07:37:36;;;;;;;10.57;8.37;;;;;;;;;;5031357;28;20723;-79
2022/11/06 07:40:03;;;;;;;11.40;7.73;;;;;;;;;;5032447;28;20207;-76
2022/11/06 07:42:30;;;;;;;14.43;8.73;;;;;;;;;;5015879;28;20243;-77
2022/11/06 07:44:58;;;;;;;12.87;7.63;;;;;;;;;;5001986;28;20207;-77
2022/11/06 07:47:28;;;;;;;12.47;7.87;;;;;;;;;;5011603;28;20231;-77
2022/11/06 07:49:56;;;;;;;13.10;8.20;;;;;;;;;;5011806;28;20203;-79
2022/11/06 07:52:23;;;;;;;13.13;8.67;;;;;;;;;;5007230;28;20722;-78
2022/11/06 07:54:50;;;;;;;15.73;8.87;;;;;;;;;;5011111;28;20208;-77
2022/11/06 07:57:18;;;;;;;14.87;8.70;;;;;;;;;;5009366;28;20223;-78
2022/11/06 07:59:45;;;;;;;13.93;9.03;;;;;;;;;;5011072;28;20262;-78
2022/11/06 08:02:12;;;;;;;15.30;8.27;;;;;;;;;;5010800;28;20614;-78
2022/11/06 08:04:41;;;;;;;14.57;9.20;;;;;;;;;;5012164;28;20240;-78
2022/11/06 08:07:08;;;;;;;15.73;7.73;;;;;;;;;;5011730;28;20238;-78
2022/11/06 08:09:35;;;;;;;16.83;9.40;;;;;;;;;;5011693;28;20665;-78
2022/11/06 08:12:02;;;;;;;21.57;9.97;;;;;;;;;;5011354;28;21020;-78
2022/11/06 08:14:29;;;;;;;21.97;11.07;;;;;;;;;;5012052;28;20210;-80
2022/11/06 08:16:58;;;;;;;19.70;10.47;;;;;;;;;;5012025;28;20243;-78
2022/11/06 08:19:25;;;;;;;19.77;11.33;;;;;;;;;;5012154;28;20265;-78
2022/11/06 08:21:53;;;;;;;23.37;11.20;;;;;;;;;;5011325;28;20614;-78
2022/11/06 08:24:21;;;;;;;18.17;10.20;;;;;;;;;;5012274;28;20191;-78
2022/11/06 08:26:48;;;;;;;18.43;9.23;;;;;;;;;;5011405;28;20713;-78
2022/11/06 08:29:15;;;;;;;18.87;10.00;;;;;;;;;;5009787;28;20687;-78
2022/11/06 08:31:42;;;;;;;13.67;8.23;;;;;;;;;;5010766;28;20720;-78
2022/11/06 08:34:10;;;;;;;9.00;6.87;;;;;;;;;;5011785;28;20660;-78
2022/11/06 08:36:38;;;;;;;15.93;8.70;;;;;;;;;;5011243;28;20699;-79
2022/11/06 08:39:07;;;;;;;15.13;9.53;;;;;;;;;;5011701;28;20217;-79
2022/11/06 08:41:34;;;;;;;13.57;8.77;;;;;;;;;;5010542;28;20707;-80
2022/11/06 08:44:01;;;;;;;15.23;8.50;;;;;;;;;;5011593;28;20555;-81
2022/11/06 08:46:28;;;;;;;16.17;8.30;;;;;;;;;;5011170;28;20230;-78
2022/11/06 08:48:55;;;;;;;16.60;9.70;;;;;;;;;;5011454;28;20217;-79
2022/11/06 08:51:22;;;;;;;16.93;9.60;;;;;;;;;;5010342;28;20241;-87
2022/11/06 08:53:50;;;;;;;17.57;10.33;;;;;;;;;;5011148;28;20207;-80
2022/11/06 08:56:19;;;;;;;14.30;9.93;;;;;;;;;;5010771;28;20241;-78
2022/11/06 08:58:46;;;;;;;17.27;9.90;;;;;;;;;;5011593;28;20591;-79
2022/11/06 09:01:13;;;;;;;16.77;10.53;;;;;;;;;;5011089;28;20238;-80
2022/11/06 09:03:40;;;;;;;15.90;10.10;;;;;;;;;;5022012;28;20201;-79
2022/11/06 09:06:07;;;;;;;15.83;10.27;;;;;;;;;;5030871;28;20221;-79
2022/11/06 09:08:34;;;;;;;16.00;10.03;;;;;;;;;;5031285;28;20203;-80
2022/11/06 09:11:06;;;;;;;16.80;11.20;;;;;;;;;;5014879;28;21010;-86
2022/11/06 09:13:35;;;;;;;17.43;10.43;;;;;;;;;;5011291;28;20210;-78
2022/11/06 09:16:02;;;;;;;18.90;11.03;;;;;;;;;;5011137;28;20215;-79
2022/11/06 09:18:29;;;;;;;15.17;10.53;;;;;;;;;;5011125;28;20200;-79
2022/11/06 09:20:56;;;;;;;16.17;10.77;;;;;;;;;;5011067;28;20231;-80
2022/11/06 09:23:37;;;;;;;13.20;10.17;;;;;;;;;;5024339;28;20192;-78
2022/11/06 09:26:05;;;;;;;13.67;8.90;;;;;;;;;;5037207;28;20172;-78
2022/11/06 09:28:34;;;;;;;14.00;8.37;;;;;;;;;;5037648;28;20210;-75
2022/11/06 09:31:06;;;;;;;8.47;6.17;;;;;;;;;;5035592;28;20235;-79
2022/11/06 09:33:37;;;;;;;15.83;8.27;;;;;;;;;;5037809;28;20176;-79
2022/11/06 09:36:08;;;;;;;10.43;6.50;;;;;;;;;;5030905;28;20206;-79
2022/11/06 09:38:36;;;;;;;5.40;4.80;;;;;;;;;;5038288;28;20259;-78
2022/11/06 09:41:11;;;;;;;5.97;4.53;;;;;;;;;;5037021;28;20215;-77
2022/11/06 09:43:47;;;;;;;6.37;5.77;;;;;;;;;;5040242;28;20195;-78
2022/11/06 09:46:37;;;;;;;10.20;7.20;;;;;;;;;;5038883;28;20261;-78
2022/11/06 09:49:12;;;;;;;7.73;6.10;;;;;;;;;;5039741;28;20258;-78
2022/11/06 09:51:47;;;;;;;6.70;5.90;;;;;;;;;;5035951;28;20234;-78
2022/11/06 09:54:19;;;;;;;4.37;3.97;;;;;;;;;;5046868;28;20172;-78
2022/11/06 09:56:55;;;;;;;6.43;4.77;;;;;;;;;;5006920;28;20230;-79
2022/11/06 09:59:27;;;;;;;6.80;4.23;;;;;;;;;;5037076;28;20203;-79
2022/11/06 10:01:57;;;;;;;8.83;4.17;;;;;;;;;;5031388;28;20249;-79
2022/11/06 10:04:44;;;;;;;4.47;4.07;;;;;;;;;;5030058;28;20212;-77
2022/11/06 10:07:23;;;;;;;4.07;3.50;;;;;;;;;;5033958;28;20296;-77
2022/11/06 10:09:53;;;;;;;4.57;3.57;;;;;;;;;;5036586;28;20223;-78
2022/11/06 10:12:30;;;;;;;4.73;3.83;;;;;;;;;;5037438;28;20323;-77
2022/11/06 10:15:04;;;;;;;6.97;3.43;;;;;;;;;;5036165;28;20207;-78
2022/11/06 10:17:43;;;;;;;6.97;3.23;;;;;;;;;;5031664;28;20230;-79
2022/11/06 10:20:14;;;;;;;4.77;3.17;;;;;;;;;;5036983;28;20175;-77
2022/11/06 10:22:43;;;;;;;4.47;3.50;;;;;;;;;;5036978;28;20221;-77
2022/11/06 10:25:20;;;;;;;3.17;2.90;;;;;;;;;;5036080;28;20208;-79
2022/11/06 10:27:56;;;;;;;5.37;3.70;;;;;;;;;;5036943;28;20261;-78
2022/11/06 10:30:24;;;;;;;5.23;3.40;;;;;;;;;;5036900;28;20221;-77
2022/11/06 10:33:23;;;;;;;4.63;3.70;;;;;;;;;;5034357;28;20269;-79
2022/11/06 10:35:54;;;;;;;4.87;4.10;;;;;;;;;;5033824;28;20713;-78
2022/11/06 10:38:24;;;;;;;5.07;3.93;;;;;;;;;;5024882;28;20310;-78
2022/11/06 10:41:01;;;;;;;6.17;3.47;;;;;;;;;;5036945;28;20310;-78
2022/11/06 10:43:32;;;;;;;6.37;3.63;;;;;;;;;;5036797;28;20257;-77
2022/11/06 10:46:03;;;;;;;5.93;4.83;;;;;;;;;;5037121;28;20183;-79
2022/11/06 10:48:41;;;;;;;4.50;3.97;;;;;;;;;;5038178;28;20223;-77
2022/11/06 10:51:21;;;;;;;4.23;3.83;;;;;;;;;;5037489;28;20211;-79
2022/11/06 10:53:59;;;;;;;5.17;3.30;;;;;;;;;;5038635;28;20183;-79
2022/11/06 10:56:43;;;;;;;5.80;3.97;;;;;;;;;;5035531;28;20215;-80
2022/11/06 10:59:10;;;;;;;4.60;4.00;;;;;;;;;;5017888;28;20218;-80
2022/11/06 11:01:38;;;;;;;5.67;3.70;;;;;;;;;;5014906;28;20251;-81
2022/11/06 11:04:05;;;;;;;5.93;3.70;;;;;;;;;;5015016;28;20212;-80
2022/11/06 11:06:34;;;;;;;6.10;4.13;;;;;;;;;;5013978;28;20267;-79
2022/11/06 11:09:01;;;;;;;4.33;3.93;;;;;;;;;;5013556;28;20213;-79
2022/11/06 11:11:29;;;;;;;4.93;3.87;;;;;;;;;;5013720;28;20242;-79
2022/11/06 11:14:23;;;;;;;3.77;3.47;;;;;;;;;;5013661;28;20266;-79
2022/11/06 11:16:50;;;;;;;3.90;3.60;;;;;;;;;;4989295;28;20245;-80
2022/11/06 11:19:26;;;;;;;3.90;3.37;;;;;;;;;;5013196;28;20232;-79
2022/11/06 11:21:55;;;;;;;3.47;3.17;;;;;;;;;;5026266;28;20242;-78
2022/11/06 11:24:23;;;;;;;4.50;3.73;;;;;;;;;;5005801;28;20214;-79
2022/11/06 11:26:51;;;;;;;3.47;2.90;;;;;;;;;;5012002;28;20230;-79
2022/11/06 11:29:23;;;;;;;3.53;3.23;;;;;;;;;;5017551;28;20221;-78
2022/11/06 11:31:52;;;;;;;3.20;2.93;;;;;;;;;;5015446;28;20231;-79
2022/11/06 11:34:20;;;;;;;3.00;2.80;;;;;;;;;;5015160;28;20215;-78
2022/11/06 11:36:49;;;;;;;3.00;2.80;;;;;;;;;;5014173;28;20224;-79
2022/11/06 11:39:21;;;;;;;4.13;3.40;;;;;;;;;;5032025;28;20229;-86
2022/11/06 11:41:49;;;;;;;3.83;2.90;;;;;;;;;;5036931;28;20257;-86
2022/11/06 11:44:24;;;;;;;3.17;2.87;;;;;;;;;;5039073;28;20259;-83
2022/11/06 11:46:52;;;;;;;4.73;2.93;;;;;;;;;;5343543;23;20297;-85
2022/11/06 11:52:24;;;;;;;3.93;2.80;;;;;;;;;;5057070;28;20241;-86
2022/11/06 11:54:54;;;;;;;3.30;2.90;;;;;;;;;;5057584;28;20194;-89
2022/11/06 11:57:24;;;;;;;3.00;2.80;;;;;;;;;;5543575;22;20225;-88
2022/11/06 11:59:54;;;;;;;3.53;2.80;;;;;;;;;;5058418;28;20185;-87
2022/11/06 12:02:23;;;;;;;5.70;3.17;;;;;;;;;;5057809;28;20238;-84
2022/11/06 12:04:52;;;;;;;3.30;3.00;;;;;;;;;;5050562;28;20294;-88
2022/11/06 12:07:24;;;;;;;3.13;2.83;;;;;;;;;;5033758;28;20234;-87
2022/11/06 12:12:32;;;;;;;3.20;2.90;;;;;;;;;;5531704;22;20221;-84
2022/11/06 12:15:09;;;;;;;3.53;2.63;;;;;;;;;;5056590;28;20214;-88
2022/11/06 12:17:39;;;;;;;3.93;2.87;;;;;;;;;;5055039;28;20244;-88
2022/11/06 12:20:19;;;;;;;3.10;2.80;;;;;;;;;;5055634;28;20218;-87
2022/11/06 12:22:49;;;;;;;3.43;2.90;;;;;;;;;;5037536;28;20245;-86
2022/11/06 12:25:20;;;;;;;2.60;2.40;;;;;;;;;;5038789;28;20184;-86
2022/11/06 12:27:52;;;;;;;2.97;2.67;;;;;;;;;;5038173;28;20226;-86
2022/11/06 12:30:20;;;;;;;6.33;4.70;;;;;;;;;;5038865;28;20183;-86
2022/11/06 12:32:55;;;;;;;6.67;4.30;;;;;;;;;;5043725;28;20235;-87
2022/11/06 12:35:33;;;;;;;4.07;2.83;;;;;;;;;;5037524;28;20194;-87
2022/11/06 12:38:16;;;;;;;3.50;2.80;;;;;;;;;;5034526;28;20270;-86
2022/11/06 12:40:56;;;;;;;3.80;2.50;;;;;;;;;;5034336;28;20274;-84
2022/11/06 12:43:28;;;;;;;5.27;3.20;;;;;;;;;;5037579;28;20360;-85
2022/11/06 12:46:30;;;;;;;3.90;2.90;;;;;;;;;;5036798;28;20196;-82
2022/11/06 12:49:25;;;;;;;3.53;2.67;;;;;;;;;;5034008;28;20203;-86
2022/11/06 12:54:59;;;;;;;2.70;2.50;;;;;;;;;;5033135;28;20211;-86
2022/11/06 12:57:32;;;;;;;2.83;2.60;;;;;;;;;;5034590;28;20223;-84
2022/11/06 13:00:10;;;;;;;2.73;2.53;;;;;;;;;;5035892;28;20207;-86
2022/11/06 13:10:48;;;;;;;2.60;2.20;;;;;;;;;;5488565;22;20223;-85
2022/11/06 13:13:32;;;;;;;3.30;3.00;;;;;;;;;;5021265;28;20216;-84
2022/11/06 13:18:41;;;;;;;1.90;1.80;;;;;;;;;;5414554;23;20245;-84
2022/11/06 13:26:49;;;;;;;1.80;1.70;;;;;;;;;;5002119;28;20262;-83
2022/11/06 13:29:20;;;;;;;1.90;1.80;;;;;;;;;;5004281;28;20543;-86
2022/11/06 13:31:54;;;;;;;2.00;1.90;;;;;;;;;;5026501;28;20241;-85
2022/11/06 13:34:29;;;;;;;1.73;1.63;;;;;;;;;;5050627;28;20170;-83
2022/11/06 13:36:57;;;;;;;2.30;1.90;;;;;;;;;;5055302;28;20233;-84
2022/11/06 13:39:29;;;;;;;1.80;1.70;;;;;;;;;;5057418;28;20211;-83
2022/11/06 13:41:57;;;;;;;1.93;1.83;;;;;;;;;;5053111;28;20250;-82
2022/11/06 13:44:25;;;;;;;2.87;2.10;;;;;;;;;;5061755;28;20202;-81
2022/11/06 13:47:02;;;;;;;2.17;2.00;;;;;;;;;;5060844;28;20562;-81
2022/11/06 13:49:39;;;;;;;2.53;2.30;;;;;;;;;;5061442;28;20186;-84
2022/11/06 13:52:17;;;;;;;2.70;1.90;;;;;;;;;;5060507;28;20257;-83
2022/11/06 13:54:52;;;;;;;1.80;1.70;;;;;;;;;;5546018;23;20234;-84
2022/11/06 13:57:34;;;;;;;2.30;2.10;;;;;;;;;;5048546;28;20218;-83
2022/11/06 14:00:16;;;;;;;2.23;2.10;;;;;;;;;;5142608;22;20188;-84
2022/11/06 14:03:02;;;;;;;2.10;2.00;;;;;;;;;;5020680;28;20223;-83
2022/11/06 14:05:46;;;;;;;1.90;1.80;;;;;;;;;;5021641;28;20502;-83
2022/11/06 14:08:18;;;;;;;2.37;2.23;;;;;;;;;;5021385;28;20263;-83
2022/11/06 14:10:53;;;;;;;2.10;2.00;;;;;;;;;;5021131;28;20212;-83
2022/11/06 14:13:25;;;;;;;2.50;2.17;;;;;;;;;;5017148;28;20231;-84
2022/11/06 14:16:00;;;;;;;2.00;1.90;;;;;;;;;;5016991;28;20200;-80
2022/11/06 14:18:29;;;;;;;2.20;2.00;;;;;;;;;;5018223;28;20194;-83
2022/11/06 14:21:15;;;;;;;1.80;1.70;;;;;;;;;;5361850;22;20570;-81
2022/11/06 14:23:53;;;;;;;2.20;1.80;;;;;;;;;;5019924;28;20212;-85
2022/11/06 14:26:35;;;;;;;4.00;1.70;;;;;;;;;;5019922;28;20238;-85
2022/11/06 14:29:18;;;;;;;2.60;1.60;;;;;;;;;;5020910;28;20194;-84
2022/11/06 14:32:00;;;;;;;2.20;2.00;;;;;;;;;;5020765;28;20259;-84
2022/11/06 14:34:31;;;;;;;2.20;2.00;;;;;;;;;;5032409;28;20223;-78
2022/11/06 14:36:58;;;;;;;2.60;2.07;;;;;;;;;;5015849;28;20246;-78
2022/11/06 14:39:52;;;;;;;1.90;1.80;;;;;;;;;;5014169;28;20195;-78
2022/11/06 14:42:31;;;;;;;2.80;2.43;;;;;;;;;;5010695;28;20247;-79
2022/11/06 14:47:58;;;;;;;2.07;1.97;;;;;;;;;;5001947;28;20242;-78
2022/11/06 14:51:01;;;;;;;1.87;1.77;;;;;;;;;;5009622;28;20243;-78
2022/11/06 14:53:34;;;;;;;3.93;2.47;;;;;;;;;;5009590;28;20254;-77
2022/11/06 14:56:03;;;;;;;2.20;2.07;;;;;;;;;;5010017;28;20212;-77
2022/11/06 15:04:35;;;;;;;1.97;1.77;;;;;;;;;;5013155;28;20200;-78
2022/11/06 15:07:44;;;;;;;3.57;2.50;;;;;;;;;;5011589;28;20250;-79
2022/11/06 15:13:11;;;;;;;5.20;2.63;;;;;;;;;;5013884;28;20236;-78
2022/11/06 15:18:25;;;;;;;3.83;2.47;;;;;;;;;;5003525;28;20232;-78
2022/11/06 15:23:41;;;;;;;2.27;2.10;;;;;;;;;;4990453;28;20224;-79
2022/11/06 15:26:15;;;;;;;2.63;2.43;;;;;;;;;;4990999;28;20270;-79
2022/11/06 15:28:45;;;;;;;3.60;3.30;;;;;;;;;;4992807;28;20211;-78
2022/11/06 15:31:14;;;;;;;4.70;3.30;;;;;;;;;;4988389;28;20244;-79
2022/11/06 15:33:49;;;;;;;6.17;3.43;;;;;;;;;;4972423;28;20228;-79
2022/11/06 15:36:17;;;;;;;3.33;3.13;;;;;;;;;;4976055;28;20246;-79
2022/11/06 15:38:45;;;;;;;6.57;5.43;;;;;;;;;;4980196;28;20219;-79
2022/11/06 15:41:13;;;;;;;21.77;15.10;;;;;;;;;;4991058;28;20313;-78
2022/11/06 15:43:44;;;;;;;14.57;13.07;;;;;;;;;;4992485;28;20209;-78
2022/11/06 15:46:17;;;;;;;6.87;6.07;;;;;;;;;;4992134;28;20219;-79
2022/11/06 15:48:46;;;;;;;6.70;4.93;;;;;;;;;;4972691;28;20209;-78
2022/11/06 15:51:20;;;;;;;5.63;3.50;;;;;;;;;;4972498;28;20598;-79
2022/11/06 15:53:47;;;;;;;3.40;3.17;;;;;;;;;;4972910;28;20228;-79